createdAt,value
2018-03-07T00:01:35.127Z,96330.82
2018-03-07T00:04:08.052Z,96336.38
2018-03-07T00:06:43.219Z,96335.21
2018-03-07T00:09:16.316Z,96337.80
2018-03-07T00:11:48.655Z,96329.26
2018-03-07T00:14:22.224Z,96335.33
2018-03-07T00:16:55.874Z,96336.30
2018-03-07T00:19:28.941Z,96337.31
2018-03-07T00:22:01.843Z,96335.55
2018-03-07T00:24:34.757Z,96332.89
2018-03-07T00:27:08.249Z,96335.77
2018-03-07T00:29:40.983Z,96332.81
2018-03-07T00:32:14.082Z,96330.90
2018-03-07T00:34:47.454Z,96334.31
2018-03-07T00:37:19.752Z,96330.13
2018-03-07T00:39:52.574Z,96338.17
2018-03-07T00:42:26.735Z,96336.04
2018-03-07T00:44:59.967Z,96334.72
2018-03-07T00:47:31.960Z,96338.24
2018-03-07T00:50:04.541Z,96328.20
2018-03-07T00:52:37.745Z,96330.00
2018-03-07T00:55:11.031Z,96330.56
2018-03-07T00:57:44.699Z,96329.41
2018-03-07T01:00:18.164Z,96337.58
2018-03-07T01:02:52.922Z,96328.81
2018-03-07T01:05:25.295Z,96332.26
2018-03-07T01:07:58.398Z,96328.06
2018-03-07T01:10:31.515Z,96337.16
2018-03-07T01:13:04.231Z,96333.83
2018-03-07T01:15:37.438Z,96331.14
2018-03-07T01:18:10.408Z,96331.55
2018-03-07T01:20:42.633Z,96331.43
2018-03-07T01:23:16.240Z,96332.11
2018-03-07T01:25:48.493Z,96329.67
2018-03-07T01:28:20.907Z,96328.17
2018-03-07T01:30:54.129Z,96328.58
2018-03-07T01:33:26.661Z,96331.88
2018-03-07T01:35:59.273Z,96333.67
2018-03-07T01:38:32.467Z,96329.19
2018-03-07T01:41:05.917Z,96331.59
2018-03-07T01:43:38.850Z,96329.41
2018-03-07T01:46:11.619Z,96327.74
2018-03-07T01:48:44.948Z,96330.11
2018-03-07T01:51:18.373Z,96330.67
2018-03-07T01:53:53.683Z,96325.58
2018-03-07T01:56:34.820Z,96324.53
2018-03-07T01:59:07.036Z,96315.47
2018-03-07T02:01:40.944Z,96317.78
2018-03-07T02:04:13.998Z,96315.36
2018-03-07T02:06:45.340Z,96314.09
2018-03-07T03:06:22.982Z,96281.64
2018-03-07T03:08:54.033Z,96287.10
2018-03-07T03:11:25.795Z,96288.55
2018-03-07T03:13:57.049Z,96292.00
2018-03-07T03:16:28.468Z,96295.30
2018-03-07T03:19:00.061Z,96297.77
2018-03-07T03:21:30.900Z,96298.03
2018-03-07T03:24:02.811Z,96306.66
2018-03-07T03:26:33.693Z,96299.63
2018-03-07T03:29:04.912Z,96303.22
2018-03-07T03:31:36.710Z,96306.47
2018-03-07T03:34:07.942Z,96305.84
2018-03-07T03:36:39.346Z,96301.50
2018-03-07T03:39:11.668Z,96294.53
2018-03-07T03:41:42.658Z,96295.65
2018-03-07T03:44:14.764Z,96299.91
2018-03-07T03:46:46.028Z,96297.98
2018-03-07T03:49:17.199Z,96299.71
2018-03-07T03:51:48.422Z,96302.87
2018-03-07T03:54:19.471Z,96303.99
2018-03-07T03:56:50.877Z,96308.67
2018-03-07T03:59:21.691Z,96316.05
2018-03-07T04:01:52.985Z,96317.28
2018-03-07T04:04:24.414Z,96313.78
2018-03-07T04:06:56.352Z,96317.13
2018-03-07T04:09:27.826Z,96321.84
2018-03-07T04:11:59.537Z,96313.78
2018-03-07T04:14:30.691Z,96319.42
2018-03-07T04:17:01.939Z,96319.98
2018-03-07T04:19:33.678Z,96315.14
2018-03-07T04:22:05.060Z,96315.77
2018-03-07T04:24:36.364Z,96315.75
2018-03-07T04:27:07.793Z,96314.98
2018-03-07T04:29:39.064Z,96314.39
2018-03-07T04:32:10.674Z,96315.08
2018-03-07T04:34:41.804Z,96318.50
2018-03-07T04:37:13.045Z,96317.23
2018-03-07T04:39:43.872Z,96316.73
2018-03-07T04:42:14.668Z,96319.70
2018-03-07T04:44:45.492Z,96315.06
2018-03-07T04:47:16.316Z,96308.66
2018-03-07T04:49:47.894Z,96323.48
2018-03-07T04:52:20.028Z,96321.16
2018-03-07T04:54:51.404Z,96322.15
2018-03-07T04:57:22.125Z,96321.89
2018-03-07T04:59:52.925Z,96328.38
2018-03-07T05:02:23.775Z,96319.49
2018-03-07T05:04:55.317Z,96328.91
2018-03-07T05:07:27.289Z,96321.70
2018-03-07T05:09:58.946Z,96327.95
2018-03-07T05:12:29.985Z,96326.30
2018-03-07T05:15:02.762Z,96326.86
2018-03-07T05:17:35.536Z,96322.38
2018-03-07T05:20:06.428Z,96325.20
2018-03-07T05:22:37.320Z,96326.94
2018-03-07T05:25:12.001Z,96319.55
2018-03-07T05:27:42.798Z,96320.01
2018-03-07T05:30:13.636Z,96325.84
2018-03-07T05:32:45.929Z,96325.12
2018-03-07T05:35:18.518Z,96316.03
2018-03-07T05:37:51.450Z,96322.79
2018-03-07T05:40:22.433Z,96325.45
2018-03-07T05:42:54.265Z,96320.59
2018-03-07T05:45:25.892Z,96320.05
2018-03-07T05:47:57.376Z,96320.80
2018-03-07T05:50:28.460Z,96322.84
2018-03-07T05:52:59.394Z,96323.56
2018-03-07T05:55:30.237Z,96330.24
2018-03-07T05:58:01.622Z,96323.02
2018-03-07T06:00:32.965Z,96330.59
2018-03-07T06:03:03.986Z,96330.91
2018-03-07T06:05:35.337Z,96336.98
2018-03-07T06:08:06.227Z,96333.67
2018-03-07T06:10:37.189Z,96342.52
2018-03-07T06:13:08.301Z,96340.38
2018-03-07T06:15:39.159Z,96345.82
2018-03-07T06:18:10.030Z,96348.30
2018-03-07T06:20:40.916Z,96349.13
2018-03-07T06:23:11.649Z,96358.55
2018-03-07T06:25:43.361Z,96360.57
2018-03-07T06:28:14.861Z,96354.19
2018-03-07T06:30:46.104Z,96364.11
2018-03-07T06:33:17.644Z,96370.47
2018-03-07T06:35:48.429Z,96366.77
2018-03-07T06:38:19.269Z,96374.80
2018-03-07T06:40:50.586Z,96371.70
2018-03-07T06:43:22.460Z,96381.83
2018-03-07T06:45:53.965Z,96378.45
2018-03-07T06:48:24.705Z,96378.20
2018-03-07T06:50:56.159Z,96385.12
2018-03-07T06:53:27.190Z,96381.53
2018-03-07T06:55:57.986Z,96395.05
2018-03-07T06:58:29.487Z,96382.29
2018-03-07T07:01:00.573Z,96388.41
2018-03-07T07:03:31.395Z,96388.89
2018-03-07T07:06:02.432Z,96386.89
2018-03-07T07:08:33.269Z,96391.52
2018-03-07T07:11:04.042Z,96392.33
2018-03-07T07:13:35.212Z,96394.88
2018-03-07T07:16:06.456Z,96391.62
2018-03-07T07:18:37.756Z,96394.59
2018-03-07T07:21:08.654Z,96398.27
2018-03-07T07:23:40.127Z,96402.65
2018-03-07T07:26:11.460Z,96405.45
2018-03-07T07:28:43.034Z,96404.34
2018-03-07T07:31:14.410Z,96403.81
2018-03-07T07:33:45.280Z,96413.11
2018-03-07T07:36:16.472Z,96417.69
2018-03-07T07:38:47.850Z,96420.20
2018-03-07T07:41:19.319Z,96424.55
2018-03-07T07:43:50.690Z,96421.16
2018-03-07T07:46:22.163Z,96428.59
2018-03-07T07:48:54.058Z,96425.71
2018-03-07T07:51:25.709Z,96435.67
2018-03-07T07:53:57.020Z,96439.53
2018-03-07T07:56:28.605Z,96437.86
2018-03-07T07:59:00.237Z,96440.11
2018-03-07T08:01:31.324Z,96439.93
2018-03-07T08:04:02.781Z,96442.39
2018-03-07T08:06:34.246Z,96446.03
2018-03-07T08:09:06.088Z,96451.61
2018-03-07T08:11:37.310Z,96446.10
2018-03-07T08:14:08.730Z,96444.30
2018-03-07T08:16:40.614Z,96445.45
2018-03-07T08:19:12.165Z,96454.38
2018-03-07T08:21:43.065Z,96444.04
2018-03-07T08:24:14.445Z,96441.18
2018-03-07T08:26:45.673Z,96447.91
2018-03-07T08:29:17.546Z,96448.22
2018-03-07T08:31:48.928Z,96448.84
2018-03-07T08:34:20.049Z,96451.46
2018-03-07T08:36:51.688Z,96462.38
2018-03-07T08:39:23.168Z,96463.33
2018-03-07T08:41:54.307Z,96464.82
2018-03-07T08:44:25.684Z,96474.31
2018-03-07T08:46:56.781Z,96477.59
2018-03-07T08:49:28.269Z,96477.97
2018-03-07T08:51:59.154Z,96478.46
2018-03-07T08:54:30.751Z,96475.91
2018-03-07T08:57:02.754Z,96490.91
2018-03-07T08:59:34.184Z,96494.36
2018-03-07T09:02:05.808Z,96493.86
2018-03-07T09:04:37.285Z,96494.08
2018-03-07T09:07:08.431Z,96501.08
2018-03-07T09:09:40.009Z,96492.09
2018-03-07T09:12:10.821Z,96503.34
2018-03-07T09:14:41.862Z,96498.16
2018-03-07T09:17:12.963Z,96509.52
2018-03-07T09:19:43.702Z,96505.64
2018-03-07T09:22:14.964Z,96509.06
2018-03-07T09:24:46.405Z,96518.69
2018-03-07T09:27:17.226Z,96519.33
2018-03-07T09:29:48.835Z,96521.84
2018-03-07T09:32:20.305Z,96523.50
2018-03-07T09:34:51.658Z,96524.70
2018-03-07T09:37:22.746Z,96519.52
2018-03-07T09:39:53.665Z,96516.31
2018-03-07T09:42:24.900Z,96521.03
2018-03-07T09:44:58.246Z,96522.53
2018-03-07T09:47:29.584Z,96523.98
2018-03-07T09:50:03.173Z,96526.88
2018-03-07T09:52:34.031Z,96523.90
2018-03-07T09:55:07.341Z,96523.36
2018-03-07T09:57:38.674Z,96530.59
2018-03-07T10:00:10.062Z,96528.37
2018-03-07T10:02:42.201Z,96531.61
2018-03-07T10:05:14.120Z,96525.67
2018-03-07T10:07:46.537Z,96526.78
2018-03-07T10:10:17.637Z,96528.27
2018-03-07T10:12:48.916Z,96527.11
2018-03-07T10:15:20.154Z,96531.13
2018-03-07T10:17:51.266Z,96533.39
2018-03-07T10:20:22.067Z,96528.16
2018-03-07T10:22:53.179Z,96532.28
2018-03-07T10:25:24.568Z,96535.58
2018-03-07T10:27:55.914Z,96539.48
2018-03-07T10:30:27.689Z,96547.28
2018-03-07T10:33:00.369Z,96548.28
2018-03-07T10:35:31.793Z,96542.36
2018-03-07T10:38:04.816Z,96547.47
2018-03-07T10:40:36.576Z,96550.77
2018-03-07T10:43:08.194Z,96549.25
2018-03-07T10:45:41.403Z,96550.95
2018-03-07T10:48:12.652Z,96565.38
2018-03-07T10:50:44.509Z,96566.58
2018-03-07T10:53:16.174Z,96563.05
2018-03-07T10:55:47.274Z,96571.53
2018-03-07T10:58:18.059Z,96567.06
2018-03-07T11:00:48.853Z,96565.59
2018-03-07T11:03:20.562Z,96570.98
2018-03-07T11:05:51.360Z,96570.61
2018-03-07T11:08:22.145Z,96575.68
2018-03-07T11:10:53.250Z,96578.08
2018-03-07T11:13:24.030Z,96581.58
2018-03-07T11:15:54.901Z,96584.50
2018-03-07T11:18:26.010Z,96585.55
2018-03-07T11:20:56.830Z,96591.55
2018-03-07T11:23:27.665Z,96591.70
2018-03-07T11:25:58.753Z,96597.08
2018-03-07T11:28:30.259Z,96606.05
2018-03-07T11:31:01.901Z,96602.64
2018-03-07T11:33:33.317Z,96602.18
2018-03-07T11:36:05.968Z,96605.91
2018-03-07T11:38:46.721Z,96604.89
2018-03-07T11:41:17.518Z,96607.73
2018-03-07T11:43:48.614Z,96602.59
2018-03-07T11:46:19.497Z,96601.67
2018-03-07T11:48:51.008Z,96609.11
2018-03-07T11:51:22.205Z,96607.16
2018-03-07T11:53:53.324Z,96614.59
2018-03-07T11:56:24.178Z,96613.38
2018-03-07T11:58:55.602Z,96613.97
2018-03-07T12:01:26.385Z,96613.24
2018-03-07T12:03:57.273Z,96614.05
2018-03-07T12:06:28.249Z,96617.52
2018-03-07T12:08:59.481Z,96616.16
2018-03-07T12:11:30.292Z,96616.00
2018-03-07T12:14:03.452Z,96617.75
2018-03-07T12:16:34.266Z,96613.33
2018-03-07T12:19:06.344Z,96605.38
2018-03-07T12:21:37.216Z,96608.47
2018-03-07T12:24:08.853Z,96612.02
2018-03-07T12:26:39.821Z,96614.53
2018-03-07T12:29:11.709Z,96611.14
2018-03-07T12:31:42.445Z,96603.53
2018-03-07T12:34:14.033Z,96614.31
2018-03-07T12:36:45.345Z,96606.55
2018-03-07T12:39:17.297Z,96612.34
2018-03-07T12:41:48.672Z,96617.02
2018-03-07T12:44:27.002Z,96619.10
2018-03-07T12:47:07.257Z,96610.46
2018-03-07T12:49:46.737Z,96620.52
2018-03-07T12:52:29.065Z,96616.84
2018-03-07T12:55:07.373Z,96623.08
2018-03-07T12:57:46.104Z,96613.44
2018-03-07T13:00:24.653Z,96627.13
2018-03-07T13:03:03.506Z,96626.11
2018-03-07T13:05:57.250Z,96629.78
2018-03-07T13:08:51.204Z,96630.92
2018-03-07T13:11:46.041Z,96633.70
2018-03-07T13:14:39.416Z,96634.02
2018-03-07T13:17:34.576Z,96628.09
2018-03-07T13:20:27.974Z,96637.93
2018-03-07T13:23:21.601Z,96633.26
2018-03-07T13:26:16.546Z,96640.02
2018-03-07T13:29:10.917Z,96640.50
2018-03-07T13:32:04.656Z,96642.27
2018-03-07T13:34:59.357Z,96644.92
2018-03-07T13:37:57.041Z,96648.98
2018-03-07T13:40:50.776Z,96642.12
2018-03-07T13:43:44.482Z,96646.45
2018-03-07T13:46:38.232Z,96643.86
2018-03-07T13:49:31.990Z,96654.50
2018-03-07T13:52:25.457Z,96653.98
2018-03-07T13:55:19.380Z,96655.20
2018-03-07T13:57:51.086Z,96669.95
2018-03-07T14:00:22.896Z,96664.91
2018-03-07T14:02:54.076Z,96669.38
2018-03-07T14:05:25.330Z,96671.88
2018-03-07T14:07:56.385Z,96671.88
2018-03-07T14:10:27.769Z,96672.70
2018-03-07T14:12:58.889Z,96676.73
2018-03-07T14:15:29.673Z,96671.44
2018-03-07T14:18:03.585Z,96675.58
2018-03-07T14:20:38.001Z,96671.27
2018-03-07T14:23:08.947Z,96674.17
2018-03-07T14:25:40.808Z,96682.31
2018-03-07T14:28:12.565Z,96676.23
2018-03-07T14:30:44.214Z,96669.06
2018-03-07T14:33:15.345Z,96681.26
2018-03-07T14:35:46.152Z,96685.50
2018-03-07T14:38:16.954Z,96684.00
2018-03-07T14:40:47.790Z,96685.33
2018-03-07T14:43:18.837Z,96684.15
2018-03-07T14:45:49.625Z,96687.27
2018-03-07T14:48:20.390Z,96692.16
2018-03-07T14:50:51.536Z,96687.17
2018-03-07T14:53:22.829Z,96686.05
2018-03-07T14:55:54.362Z,96687.59
2018-03-07T14:58:26.139Z,96686.27
2018-03-07T15:00:57.003Z,96682.48
2018-03-07T15:03:28.458Z,96684.27
2018-03-07T15:05:59.693Z,96684.91
2018-03-07T15:08:30.528Z,96686.38
2018-03-07T15:11:04.357Z,96688.16
2018-03-07T15:13:35.481Z,96682.96
2018-03-07T15:16:07.537Z,96689.11
2018-03-07T15:18:38.717Z,96688.78
2018-03-07T15:21:10.497Z,96688.89
2018-03-07T15:23:41.333Z,96688.39
2018-03-07T15:26:12.509Z,96688.67
2018-03-07T15:28:43.377Z,96692.19
2018-03-07T15:31:15.701Z,96694.75
2018-03-07T15:33:46.928Z,96692.47
2018-03-07T15:36:17.917Z,96708.36
2018-03-07T15:38:48.672Z,96708.82
2018-03-07T15:41:19.775Z,96708.36
2018-03-07T15:43:50.600Z,96701.10
2018-03-07T15:46:21.865Z,96703.75
2018-03-07T15:48:52.923Z,96700.41
2018-03-07T15:51:23.818Z,96704.83
2018-03-07T15:53:54.958Z,96706.30
2018-03-07T15:56:25.822Z,96703.09
2018-03-07T15:58:56.864Z,96707.12
2018-03-07T16:01:27.737Z,96710.68
2018-03-07T16:03:58.594Z,96708.13
2018-03-07T16:06:29.784Z,96711.45
2018-03-07T16:09:00.709Z,96715.22
2018-03-07T16:11:31.554Z,96714.95
2018-03-07T16:14:03.589Z,96717.77
2018-03-07T16:16:34.332Z,96719.25
2018-03-07T16:19:05.230Z,96723.28
2018-03-07T16:21:38.357Z,96725.56
2018-03-07T16:24:09.221Z,96732.69
2018-03-07T16:26:43.102Z,96734.52
2018-03-07T16:29:13.956Z,96735.91
2018-03-07T16:31:44.767Z,96732.03
2018-03-07T16:34:15.906Z,96738.25
2018-03-07T16:36:46.771Z,96737.42
2018-03-07T16:39:17.836Z,96735.94
2018-03-07T16:41:49.056Z,96733.70
2018-03-07T16:44:19.896Z,96742.57
2018-03-07T16:46:52.758Z,96731.58
2018-03-07T16:49:23.533Z,96743.41
2018-03-07T16:51:54.481Z,96740.69
2018-03-07T16:54:25.636Z,96753.51
2018-03-07T16:56:56.421Z,96736.13
2018-03-07T16:59:27.812Z,96744.41
2018-03-07T17:01:59.111Z,96745.72
2018-03-07T17:04:29.941Z,96753.48
2018-03-07T17:07:02.390Z,96758.03
2018-03-07T17:09:39.152Z,96769.13
2018-03-07T17:12:10.876Z,96771.19
2018-03-07T17:14:41.740Z,96771.86
2018-03-07T17:17:12.989Z,96780.62
2018-03-07T17:19:43.809Z,96778.88
2018-03-07T17:22:15.972Z,96780.03
2018-03-07T17:24:47.208Z,96784.81
2018-03-07T17:27:19.074Z,96790.26
2018-03-07T17:29:50.297Z,96775.06
2018-03-07T17:32:21.477Z,96783.73
2018-03-07T17:34:54.411Z,96790.08
2018-03-07T17:37:26.165Z,96781.58
2018-03-07T17:39:56.968Z,96795.78
2018-03-07T17:42:27.848Z,96783.89
2018-03-07T17:44:58.721Z,96794.61
2018-03-07T17:47:29.564Z,96788.41
2018-03-07T17:50:00.612Z,96795.94
2018-03-07T17:52:32.033Z,96809.13
2018-03-07T17:55:02.787Z,96813.70
2018-03-07T17:57:33.610Z,96821.55
2018-03-07T18:00:04.949Z,96830.55
2018-03-07T18:05:11.050Z,96833.62
2018-03-07T18:07:41.857Z,96833.01
2018-03-07T18:10:12.644Z,96840.53
2018-03-07T18:12:43.775Z,96842.06
2018-03-07T18:15:15.289Z,96847.55
2018-03-07T18:17:47.064Z,96844.83
2018-03-07T18:20:18.112Z,96845.48
2018-03-07T18:22:48.889Z,96852.39
2018-03-07T18:25:20.086Z,96848.64
2018-03-07T18:27:50.957Z,96849.39
2018-03-07T18:30:22.061Z,96854.76
2018-03-07T18:32:52.922Z,96857.28
2018-03-07T18:35:23.761Z,96861.16
2018-03-07T18:37:54.719Z,96864.19
2018-03-07T18:40:29.562Z,96861.33
2018-03-07T18:43:00.429Z,96859.72
2018-03-07T18:45:31.557Z,96861.67
2018-03-07T18:48:02.345Z,96859.69
2018-03-07T18:50:33.616Z,96864.84
2018-03-07T18:53:04.496Z,96860.84
2018-03-07T18:55:35.401Z,96864.80
2018-03-07T18:58:06.560Z,96861.63
2018-03-07T19:00:37.401Z,96860.63
2018-03-07T19:03:08.249Z,96870.31
2018-03-07T19:05:39.493Z,96877.35
2018-03-07T19:08:10.429Z,96872.31
2018-03-07T19:10:41.245Z,96872.42
2018-03-07T19:13:12.419Z,96871.30
2018-03-07T19:15:43.204Z,96872.38
2018-03-07T19:18:14.029Z,96869.55
2018-03-07T19:20:45.098Z,96871.88
2018-03-07T19:23:15.934Z,96875.95
2018-03-07T19:25:46.704Z,96872.44
2018-03-07T19:28:17.877Z,96873.09
2018-03-07T19:30:48.889Z,96874.19
2018-03-07T19:33:19.789Z,96878.75
2018-03-07T19:35:51.130Z,96884.07
2018-03-07T19:38:21.877Z,96879.27
2018-03-07T19:43:23.721Z,96886.88
2018-03-07T19:45:55.366Z,96887.72
2018-03-07T19:48:26.251Z,96893.48
2018-03-07T19:50:57.414Z,96900.67
2018-03-07T19:53:29.316Z,96904.49
2018-03-07T19:56:04.011Z,96904.54
2018-03-07T19:58:37.762Z,96904.64
2018-03-07T20:01:08.911Z,96910.50
2018-03-07T20:03:40.646Z,96911.42
2018-03-07T20:06:11.469Z,96908.55
2018-03-07T20:08:42.628Z,96916.50
2018-03-07T20:11:13.406Z,96917.58
2018-03-07T20:13:44.253Z,96915.29
2018-03-07T20:16:15.953Z,96917.17
2018-03-07T20:18:46.777Z,96923.17
2018-03-07T20:21:19.546Z,96917.44
2018-03-07T20:23:51.016Z,96920.90
2018-03-07T20:26:21.756Z,96924.33
2018-03-07T20:28:52.964Z,96927.28
2018-03-07T20:31:23.813Z,96931.99
2018-03-07T20:33:54.684Z,96931.43
2018-03-07T20:36:25.809Z,96933.58
2018-03-07T20:38:57.245Z,96935.38
2018-03-07T20:41:28.099Z,96939.09
2018-03-07T20:44:03.661Z,96943.99
2018-03-07T20:46:35.505Z,96943.51
2018-03-07T20:49:07.832Z,96941.18
2018-03-07T20:51:42.708Z,96950.27
2018-03-07T20:54:13.550Z,96943.30
2018-03-07T20:56:47.264Z,96942.58
2018-03-07T20:59:22.342Z,96942.19
2018-03-07T21:01:53.182Z,96933.45
2018-03-07T21:04:27.335Z,96939.81
2018-03-07T21:06:58.811Z,96944.84
2018-03-07T21:09:29.655Z,96946.39
2018-03-07T21:12:00.620Z,96945.08
2018-03-07T21:14:32.353Z,96946.31
2018-03-07T21:17:05.005Z,96949.45
2018-03-07T21:19:36.701Z,96957.74
2018-03-07T21:22:07.632Z,96955.56
2018-03-07T21:24:39.878Z,96944.67
2018-03-07T21:27:11.744Z,96951.33
2018-03-07T21:29:42.521Z,96949.36
2018-03-07T21:32:15.281Z,96946.99
2018-03-07T21:34:47.887Z,96951.86
2018-03-07T21:37:19.064Z,96950.28
2018-03-07T21:39:49.862Z,96950.83
2018-03-07T21:42:20.637Z,96954.06
2018-03-07T21:44:56.227Z,96955.30
2018-03-07T21:47:27.043Z,96946.80
2018-03-07T21:49:57.865Z,96952.91
2018-03-07T21:52:28.927Z,96962.40
2018-03-07T21:55:04.063Z,96964.09
2018-03-07T22:01:08.853Z,96977.52
2018-03-07T22:03:39.975Z,96981.66
2018-03-07T22:06:10.779Z,96982.58
2018-03-07T22:08:42.933Z,96982.06
2018-03-07T22:11:14.122Z,96973.53
2018-03-07T22:13:45.507Z,96980.66
2018-03-07T22:16:16.661Z,96983.09
2018-03-07T22:18:47.540Z,96980.48
2018-03-07T22:21:28.383Z,96983.98
2018-03-07T22:24:00.722Z,96982.73
2018-03-07T22:26:31.721Z,96977.17
2018-03-07T22:29:03.393Z,96980.16
2018-03-07T22:31:34.527Z,96986.73
2018-03-07T22:34:06.312Z,96985.73
2018-03-07T22:36:37.021Z,96987.36
2018-03-07T22:39:08.502Z,96993.20
2018-03-07T22:41:39.608Z,96998.47
2018-03-07T22:44:11.253Z,97002.45
2018-03-07T22:46:42.618Z,96999.88
2018-03-07T22:49:13.966Z,97000.20
2018-03-07T22:51:45.270Z,97003.23
2018-03-07T22:54:16.417Z,97011.03
2018-03-07T22:56:47.220Z,97013.48
2018-03-07T22:59:18.536Z,97009.66
2018-03-07T23:01:49.997Z,97015.74
2018-03-07T23:04:21.593Z,97010.27
2018-03-07T23:06:52.425Z,97005.66
2018-03-07T23:09:23.477Z,97009.09
2018-03-07T23:11:54.914Z,97009.76
2018-03-07T23:14:26.262Z,96999.80
2018-03-07T23:16:57.979Z,97014.36
2018-03-07T23:19:29.513Z,97018.88
2018-03-07T23:22:01.284Z,97016.37
2018-03-07T23:24:32.136Z,97016.84
2018-03-07T23:27:04.777Z,97024.70
2018-03-07T23:29:36.677Z,97025.02
2018-03-07T23:32:08.278Z,97030.70
2018-03-07T23:34:53.576Z,97028.80
2018-03-07T23:37:24.949Z,97034.73
2018-03-07T23:39:56.644Z,97041.41
2018-03-07T23:42:29.129Z,97036.63
2018-03-07T23:45:01.209Z,97038.78
2018-03-07T23:47:32.620Z,97046.42
2018-03-07T23:50:04.529Z,97047.59
2018-03-07T23:52:35.837Z,97046.98
2018-03-07T23:55:08.010Z,97044.20
2018-03-07T23:57:53.533Z,97048.31
